Time;durP1;ratioP1;P1;durP2;ratioP2;P2;SDS_P1;SDS_P2;PMS_P1;PMS_P2;Temp;Humidity;BMP_temperature;BMP_pressure;BME280_temperature;BME280_humidity;BME280_pressure;Samples;Min_cycle;Max_cycle;Signal;HPM_P1;HPM_P2
2023/06/27 00:01:42;;;;;;;3.72;1.67;;;;;;;;;;5080006;28;20075;-60
2023/06/27 00:04:09;;;;;;;2.88;1.67;;;;;;;;;;5073918;28;20052;-60
2023/06/27 00:06:40;;;;;;;3.60;1.58;;;;;;;;;;5073576;28;20048;-60
2023/06/27 00:09:10;;;;;;;4.03;1.85;;;;;;;;;;5092490;28;20401;-61
2023/06/27 00:11:37;;;;;;;7.78;1.98;;;;;;;;;;5093724;28;20060;-60
2023/06/27 00:14:08;;;;;;;2.97;1.65;;;;;;;;;;5093592;28;20063;-60
2023/06/27 00:16:36;;;;;;;4.32;2.17;;;;;;;;;;5081844;28;20063;-61
2023/06/27 00:19:04;;;;;;;3.80;1.67;;;;;;;;;;5073383;28;20052;-61
2023/06/27 00:21:31;;;;;;;2.93;1.60;;;;;;;;;;5072996;28;20052;-61
2023/06/27 00:23:59;;;;;;;3.60;1.63;;;;;;;;;;5080544;28;20056;-61
2023/06/27 00:26:27;;;;;;;6.07;1.73;;;;;;;;;;5090808;28;20048;-60
2023/06/27 00:28:53;;;;;;;4.50;1.98;;;;;;;;;;5089858;28;20416;-60
2023/06/27 00:31:20;;;;;;;3.17;1.80;;;;;;;;;;5085074;28;20424;-60
2023/06/27 00:33:47;;;;;;;2.90;1.70;;;;;;;;;;5090825;28;20051;-61
2023/06/27 00:36:15;;;;;;;4.28;1.90;;;;;;;;;;5093151;28;20044;-61
2023/06/27 00:38:42;;;;;;;3.58;1.83;;;;;;;;;;5093057;28;20105;-60
2023/06/27 00:41:09;;;;;;;3.13;1.75;;;;;;;;;;5092846;28;20488;-61
2023/06/27 00:43:38;;;;;;;2.85;1.90;;;;;;;;;;5092823;28;20063;-60
2023/06/27 00:46:09;;;;;;;2.67;1.80;;;;;;;;;;5091670;28;20067;-60
2023/06/27 00:48:38;;;;;;;3.78;1.75;;;;;;;;;;5090358;28;20048;-61
2023/06/27 00:51:05;;;;;;;4.83;2.00;;;;;;;;;;5092594;28;20052;-60
2023/06/27 00:53:33;;;;;;;2.90;1.90;;;;;;;;;;5092777;28;20568;-60
2023/06/27 00:56:00;;;;;;;3.53;1.98;;;;;;;;;;5093064;28;20044;-61
2023/06/27 00:58:27;;;;;;;3.85;1.83;;;;;;;;;;5092880;28;20063;-60
2023/06/27 01:00:54;;;;;;;3.10;1.90;;;;;;;;;;5091065;28;20068;-61
2023/06/27 01:03:22;;;;;;;3.55;1.90;;;;;;;;;;5089237;28;20044;-60
2023/06/27 01:05:49;;;;;;;3.95;2.00;;;;;;;;;;5092468;28;20531;-60
2023/06/27 01:08:22;;;;;;;4.82;1.90;;;;;;;;;;5092259;28;20056;-61
2023/06/27 01:10:53;;;;;;;4.20;2.30;;;;;;;;;;5092852;28;20052;-61
2023/06/27 01:13:23;;;;;;;6.15;1.85;;;;;;;;;;5092821;28;20060;-61
2023/06/27 01:15:50;;;;;;;3.78;2.08;;;;;;;;;;5092100;28;20040;-61
2023/06/27 01:18:19;;;;;;;4.57;1.90;;;;;;;;;;5091282;28;20044;-61
2023/06/27 01:20:46;;;;;;;3.53;1.88;;;;;;;;;;5099758;28;20056;-61
2023/06/27 01:23:17;;;;;;;5.65;2.10;;;;;;;;;;5091899;28;20064;-61
2023/06/27 01:25:45;;;;;;;2.75;1.65;;;;;;;;;;5080855;28;20489;-61
2023/06/27 01:28:14;;;;;;;4.43;1.90;;;;;;;;;;5072199;28;20060;-60
2023/06/27 01:30:40;;;;;;;2.85;1.88;;;;;;;;;;5084457;28;20492;-59
2023/06/27 01:33:12;;;;;;;3.20;1.88;;;;;;;;;;5091591;28;20056;-59
2023/06/27 01:35:43;;;;;;;3.55;1.60;;;;;;;;;;5094307;28;20048;-59
2023/06/27 01:38:12;;;;;;;2.78;1.70;;;;;;;;;;5096437;28;20404;-60
2023/06/27 01:40:40;;;;;;;4.15;2.13;;;;;;;;;;5096438;28;20408;-60
2023/06/27 01:43:11;;;;;;;5.90;2.22;;;;;;;;;;5096574;28;20048;-60
2023/06/27 01:45:42;;;;;;;5.47;2.30;;;;;;;;;;5096588;28;20504;-61
2023/06/27 01:48:09;;;;;;;3.55;2.03;;;;;;;;;;5094660;28;20060;-60
2023/06/27 01:50:36;;;;;;;3.90;2.05;;;;;;;;;;5095183;28;20416;-61
2023/06/27 01:53:03;;;;;;;3.88;1.88;;;;;;;;;;5092643;28;20060;-60
2023/06/27 01:55:32;;;;;;;2.58;2.00;;;;;;;;;;5095366;28;20052;-61
2023/06/27 01:58:00;;;;;;;5.97;2.20;;;;;;;;;;5094413;28;20056;-60
2023/06/27 02:00:31;;;;;;;4.07;2.30;;;;;;;;;;5095726;28;20056;-60
2023/06/27 02:02:58;;;;;;;12.02;2.13;;;;;;;;;;5093433;28;20056;-60
2023/06/27 02:05:25;;;;;;;4.10;2.10;;;;;;;;;;5085385;28;20055;-60
2023/06/27 02:07:52;;;;;;;4.80;2.13;;;;;;;;;;5075418;28;20056;-60
2023/06/27 02:10:19;;;;;;;5.07;2.58;;;;;;;;;;5090819;28;20048;-61
2023/06/27 02:12:45;;;;;;;3.55;1.88;;;;;;;;;;5096196;28;20048;-61
2023/06/27 02:15:12;;;;;;;2.38;1.92;;;;;;;;;;5095151;28;20048;-60
2023/06/27 02:17:40;;;;;;;5.30;1.98;;;;;;;;;;5093263;28;20063;-60
2023/06/27 02:20:11;;;;;;;3.97;1.85;;;;;;;;;;5092387;28;20056;-61
2023/06/27 02:22:39;;;;;;;4.00;2.17;;;;;;;;;;5084819;28;20060;-61
2023/06/27 02:25:06;;;;;;;3.03;1.75;;;;;;;;;;5081236;28;20078;-60
2023/06/27 02:27:33;;;;;;;4.97;2.20;;;;;;;;;;5095461;28;20051;-60
2023/06/27 02:30:00;;;;;;;3.45;2.05;;;;;;;;;;5095408;28;20051;-60
2023/06/27 02:32:27;;;;;;;3.83;2.20;;;;;;;;;;5092196;28;20075;-60
2023/06/27 02:34:55;;;;;;;3.60;2.20;;;;;;;;;;5095563;28;20048;-61
2023/06/27 02:37:22;;;;;;;3.35;2.15;;;;;;;;;;5094141;28;20057;-60
2023/06/27 02:39:50;;;;;;;4.15;2.15;;;;;;;;;;5095092;28;20416;-60
2023/06/27 02:42:17;;;;;;;5.38;2.53;;;;;;;;;;5095020;28;20060;-61
2023/06/27 02:44:43;;;;;;;3.60;2.25;;;;;;;;;;5094919;28;20052;-61
2023/06/27 02:47:10;;;;;;;4.20;2.30;;;;;;;;;;5094560;28;20059;-60
2023/06/27 02:49:37;;;;;;;3.17;2.00;;;;;;;;;;5093638;28;20128;-60
2023/06/27 02:52:06;;;;;;;4.15;2.20;;;;;;;;;;5095797;28;20063;-61
2023/06/27 02:54:32;;;;;;;4.07;2.20;;;;;;;;;;5086918;28;20110;-60
2023/06/27 02:56:59;;;;;;;3.55;2.05;;;;;;;;;;5094368;28;20052;-60
2023/06/27 02:59:29;;;;;;;3.78;2.05;;;;;;;;;;5090446;28;20378;-61
2023/06/27 03:01:56;;;;;;;2.95;2.10;;;;;;;;;;5075073;28;20057;-60
2023/06/27 03:04:25;;;;;;;5.97;2.20;;;;;;;;;;5089945;28;20051;-61
2023/06/27 03:06:52;;;;;;;3.15;1.80;;;;;;;;;;5095097;28;20044;-61
2023/06/27 03:09:22;;;;;;;7.47;2.28;;;;;;;;;;5093913;28;20056;-61
2023/06/27 03:11:49;;;;;;;3.10;2.30;;;;;;;;;;5094446;28;20056;-61
2023/06/27 03:14:18;;;;;;;3.53;2.10;;;;;;;;;;5095184;28;20059;-61
2023/06/27 03:16:47;;;;;;;2.90;2.10;;;;;;;;;;5094077;28;20044;-61
2023/06/27 03:19:17;;;;;;;4.30;2.40;;;;;;;;;;5093559;28;20412;-61
2023/06/27 03:21:44;;;;;;;3.60;1.88;;;;;;;;;;5090531;28;20400;-60
2023/06/27 03:24:11;;;;;;;4.13;2.67;;;;;;;;;;5094033;28;20052;-61
2023/06/27 03:26:39;;;;;;;7.07;2.50;;;;;;;;;;5094468;28;20401;-60
2023/06/27 03:29:06;;;;;;;5.38;2.40;;;;;;;;;;5094560;28;20062;-60
2023/06/27 03:31:32;;;;;;;4.68;2.30;;;;;;;;;;5094502;28;20059;-60
2023/06/27 03:33:59;;;;;;;3.90;2.20;;;;;;;;;;5091951;28;20431;-61
2023/06/27 03:36:28;;;;;;;5.25;2.42;;;;;;;;;;5094311;28;20421;-60
2023/06/27 03:38:55;;;;;;;5.75;2.20;;;;;;;;;;5094258;28;20052;-61
2023/06/27 03:41:23;;;;;;;5.07;2.13;;;;;;;;;;5093924;28;20052;-61
2023/06/27 03:43:51;;;;;;;4.40;2.33;;;;;;;;;;5094268;28;20052;-60
2023/06/27 03:46:20;;;;;;;4.22;2.25;;;;;;;;;;5094167;28;20055;-61
2023/06/27 03:48:47;;;;;;;5.45;2.33;;;;;;;;;;5091951;28;20503;-60
2023/06/27 03:51:19;;;;;;;5.35;2.25;;;;;;;;;;5093644;28;20052;-60
2023/06/27 03:53:46;;;;;;;4.35;2.30;;;;;;;;;;5094003;28;20055;-60
2023/06/27 03:56:18;;;;;;;3.20;1.85;;;;;;;;;;5093112;28;20055;-60
2023/06/27 03:58:45;;;;;;;4.47;2.42;;;;;;;;;;5093512;28;20193;-60
2023/06/27 04:01:13;;;;;;;3.67;2.10;;;;;;;;;;5091488;28;20483;-60
2023/06/27 04:03:42;;;;;;;5.70;2.20;;;;;;;;;;5091728;28;20058;-60
2023/06/27 04:06:09;;;;;;;4.45;2.08;;;;;;;;;;5084811;28;20055;-60
2023/06/27 04:08:36;;;;;;;5.90;2.38;;;;;;;;;;5092275;28;20584;-60
2023/06/27 04:11:03;;;;;;;5.22;2.30;;;;;;;;;;5092844;28;20420;-60
2023/06/27 04:13:29;;;;;;;4.68;2.47;;;;;;;;;;5092057;28;20066;-60
2023/06/27 04:15:56;;;;;;;4.25;2.10;;;;;;;;;;5091921;28;20075;-60
2023/06/27 04:18:24;;;;;;;5.93;2.75;;;;;;;;;;5092331;28;20412;-60
2023/06/27 04:20:54;;;;;;;4.63;2.70;;;;;;;;;;5093240;28;20063;-60
2023/06/27 04:23:20;;;;;;;6.72;2.60;;;;;;;;;;5092226;28;20087;-60
2023/06/27 04:26:03;;;;;;;7.63;2.80;;;;;;;;;;5092194;28;20048;-60
2023/06/27 04:28:30;;;;;;;5.43;2.83;;;;;;;;;;5072965;28;20060;-60
2023/06/27 04:31:02;;;;;;;6.43;2.10;;;;;;;;;;5088188;28;20048;-62
2023/06/27 04:33:30;;;;;;;6.70;2.70;;;;;;;;;;5089150;28;20060;-62
2023/06/27 04:36:01;;;;;;;5.82;2.60;;;;;;;;;;5084416;28;20048;-61
2023/06/27 04:38:29;;;;;;;5.20;2.88;;;;;;;;;;5087357;28;20052;-62
2023/06/27 04:40:56;;;;;;;5.05;2.65;;;;;;;;;;5089511;28;20056;-61
2023/06/27 04:43:26;;;;;;;9.90;2.78;;;;;;;;;;5088606;28;20052;-61
2023/06/27 04:45:53;;;;;;;5.78;2.80;;;;;;;;;;5090267;28;20048;-61
2023/06/27 04:48:20;;;;;;;7.90;3.45;;;;;;;;;;5088828;28;20047;-61
2023/06/27 04:50:48;;;;;;;6.45;2.83;;;;;;;;;;5088273;28;20052;-61
2023/06/27 04:53:15;;;;;;;5.47;2.40;;;;;;;;;;5084547;28;20051;-61
2023/06/27 04:55:43;;;;;;;7.57;2.70;;;;;;;;;;5089757;28;20404;-61
2023/06/27 04:58:09;;;;;;;5.45;2.88;;;;;;;;;;5076668;28;20055;-61
2023/06/27 05:00:36;;;;;;;4.38;2.30;;;;;;;;;;5088881;28;20048;-61
2023/06/27 05:03:03;;;;;;;6.70;2.58;;;;;;;;;;5088828;28;20104;-61
2023/06/27 05:05:34;;;;;;;5.05;2.63;;;;;;;;;;5090991;28;20056;-61
2023/06/27 05:08:02;;;;;;;7.78;2.95;;;;;;;;;;5079448;28;20052;-60
2023/06/27 05:10:29;;;;;;;6.30;2.90;;;;;;;;;;5086033;28;20432;-61
2023/06/27 05:12:56;;;;;;;7.40;2.53;;;;;;;;;;5086827;28;20421;-61
2023/06/27 05:15:23;;;;;;;7.63;2.85;;;;;;;;;;5084091;28;21494;-61
2023/06/27 05:17:52;;;;;;;9.40;2.97;;;;;;;;;;5086290;28;20690;-61
2023/06/27 05:20:19;;;;;;;4.82;2.22;;;;;;;;;;5083514;28;20519;-60
2023/06/27 05:22:46;;;;;;;5.80;3.03;;;;;;;;;;5088190;28;20055;-60
2023/06/27 05:25:14;;;;;;;6.22;3.13;;;;;;;;;;5089992;28;20500;-61
2023/06/27 05:27:41;;;;;;;5.40;2.90;;;;;;;;;;5092041;28;20453;-61
2023/06/27 05:30:08;;;;;;;5.28;3.38;;;;;;;;;;5091865;28;20504;-60
2023/06/27 05:32:35;;;;;;;5.80;3.15;;;;;;;;;;5092425;28;20059;-59
2023/06/27 05:35:02;;;;;;;5.70;3.00;;;;;;;;;;5090552;28;20052;-60
2023/06/27 05:37:28;;;;;;;6.28;2.80;;;;;;;;;;5092438;28;20044;-60
2023/06/27 05:39:55;;;;;;;5.90;2.70;;;;;;;;;;5092564;28;20055;-60
2023/06/27 05:42:23;;;;;;;6.13;2.60;;;;;;;;;;5092682;28;20055;-60
2023/06/27 05:44:50;;;;;;;9.07;2.88;;;;;;;;;;5089163;28;20689;-59
2023/06/27 05:47:17;;;;;;;6.90;2.97;;;;;;;;;;5092221;28;20052;-60
2023/06/27 05:49:44;;;;;;;7.30;3.17;;;;;;;;;;5090621;28;20051;-60
2023/06/27 05:52:11;;;;;;;6.13;3.00;;;;;;;;;;5092371;28;20052;-59
2023/06/27 05:54:37;;;;;;;6.38;2.75;;;;;;;;;;5092289;28;20068;-59
2023/06/27 05:57:05;;;;;;;8.85;3.10;;;;;;;;;;5092042;28;20469;-59
2023/06/27 05:59:33;;;;;;;5.88;3.13;;;;;;;;;;5092335;28;20368;-59
2023/06/27 06:01:59;;;;;;;7.10;3.15;;;;;;;;;;5091864;28;20058;-59
2023/06/27 06:04:26;;;;;;;7.93;3.10;;;;;;;;;;5089719;28;20137;-60
2023/06/27 06:06:53;;;;;;;8.15;3.70;;;;;;;;;;5092185;28;20060;-60
2023/06/27 06:09:20;;;;;;;6.32;2.88;;;;;;;;;;5091838;28;20372;-60
2023/06/27 06:11:46;;;;;;;6.07;2.67;;;;;;;;;;5092105;28;20052;-60
2023/06/27 06:14:13;;;;;;;6.25;3.00;;;;;;;;;;5092050;28;20056;-60
2023/06/27 06:16:42;;;;;;;9.13;3.55;;;;;;;;;;5092365;28;20063;-60
2023/06/27 06:19:09;;;;;;;6.45;3.25;;;;;;;;;;5090378;28;20051;-59
2023/06/27 06:21:37;;;;;;;6.53;2.70;;;;;;;;;;5093597;28;20059;-60
2023/06/27 06:24:03;;;;;;;7.80;2.72;;;;;;;;;;5095211;28;20501;-60
2023/06/27 06:26:30;;;;;;;5.53;3.00;;;;;;;;;;5095247;28;20492;-59
2023/06/27 06:28:57;;;;;;;9.82;3.15;;;;;;;;;;5095666;28;20052;-60
2023/06/27 06:31:24;;;;;;;8.48;3.13;;;;;;;;;;5095183;28;20408;-60
2023/06/27 06:33:53;;;;;;;8.32;3.10;;;;;;;;;;5086753;28;20056;-60
2023/06/27 06:36:20;;;;;;;7.72;3.08;;;;;;;;;;5075372;28;20063;-60
2023/06/27 06:38:47;;;;;;;7.00;3.08;;;;;;;;;;5075906;28;20055;-60
2023/06/27 06:41:14;;;;;;;10.25;3.20;;;;;;;;;;5076405;28;20049;-60
2023/06/27 06:43:41;;;;;;;6.95;3.40;;;;;;;;;;5074998;28;20084;-60
2023/06/27 06:46:10;;;;;;;8.98;3.30;;;;;;;;;;5074852;28;20512;-60
2023/06/27 06:48:39;;;;;;;;;;;;;;;;;;5082885;28;20044;-60
2023/06/27 06:51:08;;;;;;;9.18;3.65;;;;;;;;;;5094464;28;20359;-60
2023/06/27 06:53:35;;;;;;;9.80;3.38;;;;;;;;;;5094802;28;20052;-60
2023/06/27 06:56:02;;;;;;;8.50;3.53;;;;;;;;;;5095440;28;20059;-60
2023/06/27 06:58:29;;;;;;;7.47;3.50;;;;;;;;;;5094971;28;20047;-60
2023/06/27 07:01:05;;;;;;;9.02;3.58;;;;;;;;;;5095035;28;20060;-60
2023/06/27 07:03:33;;;;;;;9.90;3.53;;;;;;;;;;5092260;28;20158;-60
2023/06/27 07:06:00;;;;;;;9.30;3.70;;;;;;;;;;5094881;28;20067;-60
2023/06/27 07:08:28;;;;;;;11.27;3.97;;;;;;;;;;5095146;28;20055;-62
2023/06/27 07:10:55;;;;;;;9.32;4.00;;;;;;;;;;5115280;28;20416;-61
2023/06/27 07:13:22;;;;;;;9.52;3.92;;;;;;;;;;5115089;28;20044;-62
2023/06/27 07:15:49;;;;;;;9.98;3.50;;;;;;;;;;5115059;28;20059;-62
2023/06/27 07:18:16;;;;;;;9.40;3.60;;;;;;;;;;5107908;28;20495;-60
2023/06/27 07:20:45;;;;;;;8.95;3.85;;;;;;;;;;5092962;28;20048;-60
2023/06/27 07:23:11;;;;;;;11.57;3.88;;;;;;;;;;5094499;28;20048;-60
2023/06/27 07:25:40;;;;;;;8.57;4.22;;;;;;;;;;5094437;28;20089;-60
2023/06/27 07:28:16;;;;;;;6.28;3.72;;;;;;;;;;5094428;28;20048;-60
2023/06/27 07:30:45;;;;;;;8.75;3.47;;;;;;;;;;5091733;28;20486;-62
2023/06/27 07:33:12;;;;;;;;;;;;;;;;;;5092644;28;20048;-61
2023/06/27 07:35:39;;;;;;;8.43;4.05;;;;;;;;;;5094077;28;19927;-62
2023/06/27 07:38:05;;;;;;;11.40;4.35;;;;;;;;;;5092109;28;20468;-62
2023/06/27 07:40:35;;;;;;;12.07;4.28;;;;;;;;;;5093956;28;20428;-62
2023/06/27 07:43:03;;;;;;;10.25;4.22;;;;;;;;;;5094366;28;20052;-62
2023/06/27 07:45:30;;;;;;;10.60;3.88;;;;;;;;;;5094524;28;20059;-61
2023/06/27 07:47:57;;;;;;;10.00;3.78;;;;;;;;;;5093875;28;20052;-62
2023/06/27 07:50:23;;;;;;;12.90;4.57;;;;;;;;;;5090171;28;20423;-61
2023/06/27 07:52:50;;;;;;;8.68;4.15;;;;;;;;;;5093066;28;20063;-61
2023/06/27 07:55:20;;;;;;;12.68;4.32;;;;;;;;;;5093994;28;20052;-61
2023/06/27 07:57:46;;;;;;;;;;;;;;;;;;5094025;28;20059;-62
2023/06/27 08:00:15;;;;;;;8.27;3.22;;;;;;;;;;5093611;28;19919;-61
2023/06/27 08:02:44;;;;;;;10.00;4.20;;;;;;;;;;5093542;28;20067;-61
2023/06/27 08:05:11;;;;;;;12.50;3.65;;;;;;;;;;5091235;28;20059;-61
2023/06/27 08:07:38;;;;;;;13.75;4.80;;;;;;;;;;5092820;28;20064;-62
2023/06/27 08:10:05;;;;;;;13.10;4.45;;;;;;;;;;5093631;28;20055;-61
2023/06/27 08:12:32;;;;;;;7.22;3.70;;;;;;;;;;5093079;28;20048;-61
2023/06/27 08:14:59;;;;;;;10.93;3.72;;;;;;;;;;5093201;28;20055;-61
2023/06/27 08:17:27;;;;;;;7.30;3.00;;;;;;;;;;5093863;28;20048;-62
2023/06/27 08:19:55;;;;;;;10.97;3.13;;;;;;;;;;5090505;28;20056;-61
2023/06/27 08:22:23;;;;;;;8.25;3.08;;;;;;;;;;5093066;28;20134;-61
2023/06/27 08:24:50;;;;;;;11.30;3.95;;;;;;;;;;5092897;28;20067;-62
2023/06/27 08:27:17;;;;;;;8.95;3.08;;;;;;;;;;5093062;28;20078;-62
2023/06/27 08:29:44;;;;;;;8.82;3.47;;;;;;;;;;5093289;28;20044;-62
2023/06/27 08:32:11;;;;;;;7.28;2.83;;;;;;;;;;5092769;28;20055;-62
2023/06/27 08:34:41;;;;;;;8.38;3.35;;;;;;;;;;5092523;28;20064;-62
2023/06/27 08:37:08;;;;;;;6.18;2.83;;;;;;;;;;5100826;28;20052;-62
2023/06/27 08:39:36;;;;;;;7.05;2.80;;;;;;;;;;5084960;28;20052;-62
2023/06/27 08:42:03;;;;;;;7.85;3.22;;;;;;;;;;5093017;28;20056;-60
2023/06/27 08:44:30;;;;;;;6.93;2.60;;;;;;;;;;5084830;28;20075;-60
2023/06/27 08:46:58;;;;;;;10.75;2.78;;;;;;;;;;5093347;28;20056;-62
2023/06/27 08:49:27;;;;;;;7.82;2.63;;;;;;;;;;5079496;28;20052;-61
2023/06/27 08:51:57;;;;;;;6.78;2.58;;;;;;;;;;5092616;28;20139;-61
2023/06/27 08:54:27;;;;;;;11.77;3.10;;;;;;;;;;5084630;28;20460;-60
2023/06/27 08:56:55;;;;;;;7.22;3.05;;;;;;;;;;5084254;28;20051;-60
2023/06/27 08:59:25;;;;;;;6.25;2.60;;;;;;;;;;5084911;28;20055;-61
2023/06/27 09:01:53;;;;;;;5.53;2.35;;;;;;;;;;5092589;28;20055;-62
2023/06/27 09:04:20;;;;;;;4.97;2.47;;;;;;;;;;5079381;28;20382;-61
2023/06/27 09:06:47;;;;;;;6.32;2.80;;;;;;;;;;5082581;28;20409;-60
2023/06/27 09:09:15;;;;;;;5.57;2.25;;;;;;;;;;5079828;28;20392;-62
2023/06/27 09:11:43;;;;;;;5.78;2.25;;;;;;;;;;5092072;28;20052;-61
2023/06/27 09:14:09;;;;;;;6.67;2.10;;;;;;;;;;5084055;28;20059;-62
2023/06/27 09:16:36;;;;;;;5.97;2.33;;;;;;;;;;5091383;28;20051;-61
2023/06/27 09:19:03;;;;;;;3.95;2.17;;;;;;;;;;5083507;28;20056;-61
2023/06/27 09:21:32;;;;;;;5.30;2.20;;;;;;;;;;5086964;28;20052;-62
2023/06/27 09:24:05;;;;;;;7.25;2.15;;;;;;;;;;5083839;28;20048;-61
2023/06/27 09:26:33;;;;;;;5.18;2.10;;;;;;;;;;5092300;28;20063;-61
2023/06/27 09:29:00;;;;;;;5.68;1.73;;;;;;;;;;5083655;28;20498;-62
2023/06/27 09:31:27;;;;;;;7.25;2.17;;;;;;;;;;5107562;28;20052;-61
2023/06/27 09:34:03;;;;;;;5.18;2.20;;;;;;;;;;5113057;28;20052;-61
2023/06/27 09:36:31;;;;;;;5.55;2.28;;;;;;;;;;5091558;28;20500;-62
2023/06/27 09:39:00;;;;;;;6.22;2.35;;;;;;;;;;5091530;28;20044;-63
2023/06/27 09:41:39;;;;;;;4.53;2.10;;;;;;;;;;5092439;28;20052;-62
2023/06/27 09:44:12;;;;;;;4.97;2.03;;;;;;;;;;5092682;28;20052;-61
2023/06/27 09:46:40;;;;;;;5.20;2.35;;;;;;;;;;5092791;28;20055;-60
2023/06/27 09:49:07;;;;;;;5.75;2.00;;;;;;;;;;5091569;28;20059;-61
2023/06/27 09:51:34;;;;;;;4.53;2.00;;;;;;;;;;5091144;28;20078;-60
2023/06/27 09:54:01;;;;;;;6.10;1.92;;;;;;;;;;5092399;28;20055;-60
2023/06/27 09:56:31;;;;;;;5.90;2.17;;;;;;;;;;5093947;28;20078;-60
2023/06/27 09:59:06;;;;;;;7.00;1.88;;;;;;;;;;5096074;28;20052;-60
2023/06/27 10:01:35;;;;;;;5.03;2.22;;;;;;;;;;5096143;28;20507;-60
2023/06/27 10:04:02;;;;;;;4.03;2.30;;;;;;;;;;5095247;28;20055;-59
2023/06/27 10:06:29;;;;;;;5.97;2.20;;;;;;;;;;5094927;28;20066;-59
2023/06/27 10:08:55;;;;;;;6.10;2.42;;;;;;;;;;5096012;28;20052;-59
2023/06/27 10:11:23;;;;;;;4.82;2.45;;;;;;;;;;5095464;28;20056;-60
2023/06/27 10:13:50;;;;;;;5.97;2.47;;;;;;;;;;5096079;28;20056;-60
2023/06/27 10:16:18;;;;;;;5.63;2.30;;;;;;;;;;5095649;28;20063;-60
2023/06/27 10:18:45;;;;;;;4.65;1.98;;;;;;;;;;5093329;28;20051;-61
2023/06/27 10:21:12;;;;;;;6.15;2.20;;;;;;;;;;5094790;28;20378;-60
2023/06/27 10:23:40;;;;;;;4.80;2.00;;;;;;;;;;5095722;28;20064;-62
2023/06/27 10:26:09;;;;;;;5.90;2.17;;;;;;;;;;5093699;28;20417;-62
2023/06/27 10:28:36;;;;;;;4.28;2.13;;;;;;;;;;5095921;28;20056;-63
2023/06/27 10:31:04;;;;;;;5.55;2.53;;;;;;;;;;5095840;28;20055;-62
2023/06/27 10:33:35;;;;;;;5.22;2.17;;;;;;;;;;5095165;28;20048;-62
2023/06/27 10:36:05;;;;;;;5.30;2.05;;;;;;;;;;5092549;28;20056;-63
2023/06/27 10:38:36;;;;;;;3.45;2.17;;;;;;;;;;5095488;28;20509;-63
2023/06/27 10:41:21;;;;;;;4.28;2.20;;;;;;;;;;5095386;28;20412;-63
2023/06/27 10:43:49;;;;;;;7.93;2.80;;;;;;;;;;5078941;28;20055;-63
2023/06/27 10:46:17;;;;;;;5.30;2.20;;;;;;;;;;5093311;28;20052;-63
2023/06/27 10:48:49;;;;;;;7.05;2.80;;;;;;;;;;5095283;28;20048;-63
2023/06/27 10:51:17;;;;;;;3.88;2.20;;;;;;;;;;5093092;28;20408;-63
2023/06/27 10:53:46;;;;;;;5.57;2.80;;;;;;;;;;5095594;28;20488;-63
2023/06/27 10:56:16;;;;;;;5.53;2.33;;;;;;;;;;5094939;28;20047;-61
2023/06/27 10:58:46;;;;;;;6.35;2.58;;;;;;;;;;5083261;28;20060;-63
2023/06/27 11:01:20;;;;;;;5.30;2.38;;;;;;;;;;5074944;28;20057;-62
2023/06/27 11:03:52;;;;;;;6.05;2.42;;;;;;;;;;5079631;28;20055;-63
2023/06/27 11:06:20;;;;;;;4.00;2.25;;;;;;;;;;5094737;28;20063;-63
2023/06/27 11:08:55;;;;;;;5.97;2.40;;;;;;;;;;5093788;28;20055;-63
2023/06/27 11:11:27;;;;;;;5.30;2.30;;;;;;;;;;5093690;28;20400;-62
2023/06/27 11:14:04;;;;;;;4.57;2.30;;;;;;;;;;5094825;28;20063;-62
2023/06/27 11:16:31;;;;;;;5.72;1.90;;;;;;;;;;5094481;28;20048;-62
2023/06/27 11:18:58;;;;;;;4.30;2.15;;;;;;;;;;5092907;28;20051;-62
2023/06/27 11:21:26;;;;;;;7.78;2.10;;;;;;;;;;5094249;28;20480;-62
2023/06/27 11:24:06;;;;;;;7.22;2.58;;;;;;;;;;5094346;28;20056;-62
2023/06/27 11:26:33;;;;;;;4.50;2.00;;;;;;;;;;5094000;28;20164;-61
2023/06/27 11:29:03;;;;;;;7.22;2.40;;;;;;;;;;5094290;28;20055;-61
2023/06/27 11:31:40;;;;;;;5.53;2.55;;;;;;;;;;5094366;28;20488;-61
2023/06/27 11:34:06;;;;;;;3.80;2.35;;;;;;;;;;5090767;28;20059;-61
2023/06/27 11:36:37;;;;;;;6.22;2.38;;;;;;;;;;5089257;28;20412;-61
2023/06/27 11:39:07;;;;;;;7.07;2.40;;;;;;;;;;5092946;28;20534;-61
2023/06/27 11:41:39;;;;;;;6.10;2.00;;;;;;;;;;5093937;28;20052;-62
2023/06/27 11:44:09;;;;;;;3.70;1.77;;;;;;;;;;5094144;28;20056;-62
2023/06/27 11:46:36;;;;;;;4.22;1.90;;;;;;;;;;5093724;28;20097;-62
2023/06/27 11:49:02;;;;;;;4.88;2.10;;;;;;;;;;5091385;28;20060;-62
2023/06/27 11:51:40;;;;;;;3.35;1.90;;;;;;;;;;5093527;28;20048;-63
2023/06/27 11:54:07;;;;;;;4.23;2.03;;;;;;;;;;5094255;28;20526;-62
2023/06/27 11:56:38;;;;;;;6.20;2.40;;;;;;;;;;5094299;28;20063;-62
2023/06/27 11:59:06;;;;;;;3.97;1.80;;;;;;;;;;5093672;28;20480;-63
2023/06/27 12:01:33;;;;;;;3.90;2.00;;;;;;;;;;5093752;28;20059;-61
2023/06/27 12:04:00;;;;;;;6.28;2.20;;;;;;;;;;5091033;28;20048;-61
2023/06/27 12:06:28;;;;;;;4.68;1.73;;;;;;;;;;5093775;28;20055;-61
2023/06/27 12:08:57;;;;;;;4.15;2.10;;;;;;;;;;5093602;28;20151;-61
2023/06/27 12:11:32;;;;;;;4.43;1.92;;;;;;;;;;5094100;28;20385;-61
2023/06/27 12:13:59;;;;;;;4.80;1.90;;;;;;;;;;5093884;28;20052;-61
2023/06/27 12:16:27;;;;;;;5.05;1.92;;;;;;;;;;5093736;28;20055;-63
2023/06/27 12:18:54;;;;;;;5.05;2.03;;;;;;;;;;5091629;28;20428;-62
2023/06/27 12:21:21;;;;;;;4.82;1.80;;;;;;;;;;5093027;28;20044;-62
2023/06/27 12:23:48;;;;;;;5.70;1.63;;;;;;;;;;5093406;28;20056;-61
2023/06/27 12:26:16;;;;;;;4.28;1.95;;;;;;;;;;5093180;28;20063;-61
2023/06/27 12:28:43;;;;;;;;;;;;;;;;;;5094217;28;20063;-61
2023/06/27 12:31:09;;;;;;;3.03;1.63;;;;;;;;;;5093331;28;20307;-62
2023/06/27 12:33:36;;;;;;;3.88;1.80;;;;;;;;;;5090360;28;20052;-62
2023/06/27 12:36:03;;;;;;;3.65;2.10;;;;;;;;;;5093805;28;20048;-62
2023/06/27 12:38:30;;;;;;;3.67;2.00;;;;;;;;;;5093434;28;20511;-62
2023/06/27 12:40:57;;;;;;;5.90;1.80;;;;;;;;;;5093215;28;20432;-60
2023/06/27 12:43:25;;;;;;;4.95;2.17;;;;;;;;;;5093058;28;20054;-60
2023/06/27 12:46:01;;;;;;;5.15;1.88;;;;;;;;;;5092791;28;20063;-62
2023/06/27 12:48:28;;;;;;;3.70;1.92;;;;;;;;;;5090881;28;20396;-61
2023/06/27 12:50:54;;;;;;;4.95;2.22;;;;;;;;;;5093102;28;20066;-61
2023/06/27 12:53:21;;;;;;;6.93;2.65;;;;;;;;;;5092672;28;20405;-61
2023/06/27 12:55:48;;;;;;;5.60;1.98;;;;;;;;;;5092809;28;20518;-60
2023/06/27 12:58:15;;;;;;;5.50;1.77;;;;;;;;;;5093112;28;20052;-61
2023/06/27 13:00:46;;;;;;;5.95;2.22;;;;;;;;;;5093143;28;20052;-62
2023/06/27 13:03:13;;;;;;;5.60;2.33;;;;;;;;;;5090021;28;20055;-62
2023/06/27 13:05:40;;;;;;;5.43;2.08;;;;;;;;;;5092878;28;20390;-62
2023/06/27 13:08:07;;;;;;;6.18;2.25;;;;;;;;;;5092862;28;20060;-62
2023/06/27 13:10:34;;;;;;;4.72;1.83;;;;;;;;;;5092730;28;20059;-63
2023/06/27 13:13:01;;;;;;;4.53;2.13;;;;;;;;;;5092877;28;20052;-62
2023/06/27 13:15:28;;;;;;;4.18;1.90;;;;;;;;;;5092450;28;20396;-62
2023/06/27 13:17:56;;;;;;;4.53;2.10;;;;;;;;;;5090246;28;20052;-63
2023/06/27 13:20:25;;;;;;;6.18;2.03;;;;;;;;;;5091351;28;20071;-62
2023/06/27 13:22:52;;;;;;;4.30;1.90;;;;;;;;;;5092498;28;20400;-62
2023/06/27 13:25:18;;;;;;;5.18;1.90;;;;;;;;;;5092271;28;20078;-63
2023/06/27 13:27:45;;;;;;;4.88;1.80;;;;;;;;;;5109960;28;20052;-66
2023/06/27 13:30:12;;;;;;;4.25;1.98;;;;;;;;;;5108304;28;20051;-62
2023/06/27 13:32:39;;;;;;;5.78;1.50;;;;;;;;;;5106811;28;20057;-62
2023/06/27 13:35:08;;;;;;;4.25;1.98;;;;;;;;;;5108841;28;20054;-62
2023/06/27 13:37:35;;;;;;;2.83;1.58;;;;;;;;;;5112718;28;20556;-62
2023/06/27 13:40:04;;;;;;;7.13;1.83;;;;;;;;;;5112099;28;20051;-62
2023/06/27 13:42:31;;;;;;;4.07;1.60;;;;;;;;;;5113086;28;20484;-62
2023/06/27 13:44:59;;;;;;;2.95;1.60;;;;;;;;;;5112622;28;20051;-62
2023/06/27 13:47:26;;;;;;;3.92;1.48;;;;;;;;;;5113062;28;20048;-62
2023/06/27 13:49:53;;;;;;;3.42;1.48;;;;;;;;;;5107207;28;20054;-62
2023/06/27 13:52:21;;;;;;;3.20;1.40;;;;;;;;;;5113142;28;20047;-63
2023/06/27 13:54:48;;;;;;;2.85;1.80;;;;;;;;;;5112924;28;20058;-62
2023/06/27 13:57:15;;;;;;;3.88;1.75;;;;;;;;;;5112451;28;20051;-62
2023/06/27 13:59:42;;;;;;;3.38;1.48;;;;;;;;;;5106176;28;20070;-62
2023/06/27 14:02:08;;;;;;;4.00;1.45;;;;;;;;;;5112386;28;20480;-62
2023/06/27 14:04:36;;;;;;;3.35;1.40;;;;;;;;;;5107281;28;20051;-61
2023/06/27 14:07:03;;;;;;;4.45;1.63;;;;;;;;;;5096389;28;20052;-61
2023/06/27 14:09:31;;;;;;;3.13;1.52;;;;;;;;;;5092293;28;20055;-62
2023/06/27 14:11:58;;;;;;;3.58;1.52;;;;;;;;;;5091890;28;20048;-61
2023/06/27 14:14:25;;;;;;;3.92;1.50;;;;;;;;;;5091594;28;20071;-62
2023/06/27 14:16:52;;;;;;;3.25;1.40;;;;;;;;;;5091844;28;20051;-61
2023/06/27 14:19:19;;;;;;;3.30;1.30;;;;;;;;;;5100548;28;20067;-61
2023/06/27 14:21:45;;;;;;;3.15;1.33;;;;;;;;;;5111989;28;20408;-62
2023/06/27 14:24:12;;;;;;;3.08;1.35;;;;;;;;;;5112110;28;20048;-62
2023/06/27 14:26:40;;;;;;;2.65;1.45;;;;;;;;;;5112169;28;20055;-61
2023/06/27 14:29:13;;;;;;;2.75;1.20;;;;;;;;;;5109644;28;21278;-62
2023/06/27 14:31:40;;;;;;;4.93;1.60;;;;;;;;;;5089948;28;20052;-61
2023/06/27 14:34:06;;;;;;;3.45;1.40;;;;;;;;;;5088212;28;20504;-61
2023/06/27 14:36:33;;;;;;;5.03;1.65;;;;;;;;;;5112100;28;20373;-62
2023/06/27 14:39:00;;;;;;;2.30;1.10;;;;;;;;;;5112470;28;20055;-62
2023/06/27 14:41:27;;;;;;;2.95;1.50;;;;;;;;;;5112107;28;20048;-62
2023/06/27 14:43:55;;;;;;;2.85;1.73;;;;;;;;;;5115676;28;20492;-62
2023/06/27 14:46:22;;;;;;;2.53;1.17;;;;;;;;;;5116050;28;20056;-62
2023/06/27 14:48:51;;;;;;;3.63;1.30;;;;;;;;;;5104061;28;20063;-62